createdAt,value
2023-02-05T00:02:26.953Z,102161.88
2023-02-05T00:04:55.516Z,102162.50
2023-02-05T00:07:24.208Z,102156.53
2023-02-05T00:09:52.800Z,102142.03
2023-02-05T00:12:21.393Z,102167.75
2023-02-05T00:14:50.017Z,102163.38
2023-02-05T00:17:19.999Z,102173.72
2023-02-05T00:19:48.781Z,102161.56
2023-02-05T00:22:17.420Z,102158.22
2023-02-05T00:24:45.953Z,102170.25
2023-02-05T00:27:14.462Z,102168.56
2023-02-05T00:29:43.057Z,102171.13
2023-02-05T00:32:11.634Z,102162.44
2023-02-05T00:34:42.533Z,102149.53
2023-02-05T00:37:11.190Z,102175.38
2023-02-05T00:39:39.636Z,102158.94
2023-02-05T00:42:08.300Z,102164.16
2023-02-05T00:44:36.806Z,102149.38
2023-02-05T00:47:05.317Z,102165.81
2023-02-05T00:49:33.685Z,102158.94
2023-02-05T00:52:04.959Z,102151.44
2023-02-05T00:54:33.618Z,102170.41
2023-02-05T00:57:02.212Z,102156.63
2023-02-05T00:59:30.631Z,102164.44
2023-02-05T01:02:00.609Z,102177.38
2023-02-05T01:04:29.349Z,102172.34
2023-02-05T01:06:57.823Z,102181.78
2023-02-05T01:09:27.837Z,102183.50
2023-02-05T01:11:56.215Z,102180.06
2023-02-05T01:14:24.656Z,102173.06
2023-02-05T01:16:53.090Z,102190.34
2023-02-05T01:19:21.817Z,102187.81
2023-02-05T01:21:50.413Z,102192.13
2023-02-05T01:24:19.060Z,102182.44
2023-02-05T01:26:49.068Z,102184.94
2023-02-05T01:29:17.615Z,102186.75
2023-02-05T01:31:46.258Z,102188.53
2023-02-05T01:34:14.781Z,102178.09
2023-02-05T01:36:43.213Z,102177.25
2023-02-05T01:39:11.822Z,102185.06
2023-02-05T01:41:42.188Z,102177.38
2023-02-05T01:44:14.008Z,102183.34
2023-02-05T01:46:44.193Z,102186.94
2023-02-05T01:49:17.244Z,102181.63
2023-02-05T01:51:47.029Z,102190.97
2023-02-05T01:54:16.736Z,102182.50
2023-02-05T01:56:49.968Z,102186.78
2023-02-05T01:59:24.710Z,102176.44
2023-02-05T02:01:54.430Z,102171.13
2023-02-05T02:04:33.910Z,102159.28
2023-02-05T02:07:03.242Z,102172.13
2023-02-05T02:09:31.924Z,102167.06
2023-02-05T02:12:00.530Z,102173.81
2023-02-05T02:14:32.366Z,102177.22
2023-02-05T02:17:03.742Z,102177.16
2023-02-05T02:19:39.583Z,102182.50
2023-02-05T02:22:29.267Z,102180.75
2023-02-05T02:25:42.692Z,102188.44
2023-02-05T02:28:14.921Z,102183.06
2023-02-05T02:30:47.274Z,102181.22
2023-02-05T02:33:22.863Z,102182.94
2023-02-05T02:36:00.232Z,102177.69
2023-02-05T02:38:33.655Z,102169.94
2023-02-05T02:41:08.164Z,102181.88
2023-02-05T02:43:42.638Z,102187.84
2023-02-05T02:46:18.698Z,102181.88
2023-02-05T02:48:49.392Z,102188.72
2023-02-05T02:51:20.580Z,102175.09
2023-02-05T02:53:52.000Z,102160.47
2023-02-05T02:56:21.563Z,102175.13
2023-02-05T02:58:55.749Z,102184.53
2023-02-05T03:01:28.759Z,102185.41
2023-02-05T03:04:02.088Z,102181.16
2023-02-05T03:06:33.260Z,102181.06
2023-02-05T03:09:05.989Z,102179.16
2023-02-05T03:11:36.070Z,102167.09
2023-02-05T03:14:06.204Z,102182.53
2023-02-05T03:16:34.935Z,102184.47
2023-02-05T03:19:05.769Z,102185.28
2023-02-05T03:21:38.482Z,102175.84
2023-02-05T03:24:08.112Z,102172.47
2023-02-05T03:26:38.569Z,102181.94
2023-02-05T03:29:11.954Z,102180.34
2023-02-05T03:31:47.788Z,102190.78
2023-02-05T03:34:28.288Z,102187.25
2023-02-05T03:37:10.492Z,102184.59
2023-02-05T03:39:51.249Z,102183.88
2023-02-05T03:42:33.132Z,102187.41
2023-02-05T03:45:21.475Z,102189.97
2023-02-05T03:48:04.088Z,102177.13
2023-02-05T03:50:37.344Z,102196.81
2023-02-05T03:53:13.946Z,102175.31
2023-02-05T03:55:48.009Z,102195.13
2023-02-05T03:58:23.474Z,102195.94
2023-02-05T04:00:53.561Z,102187.31
2023-02-05T04:03:22.082Z,102195.88
2023-02-05T04:05:51.089Z,102191.50
2023-02-05T04:08:19.606Z,102194.09
2023-02-05T04:10:48.142Z,102193.16
2023-02-05T04:13:16.693Z,102193.13
2023-02-05T04:15:45.185Z,102195.72
2023-02-05T04:18:15.000Z,102193.22
2023-02-05T04:20:43.402Z,102195.06
2023-02-05T04:23:12.009Z,102196.88
2023-02-05T04:25:41.014Z,102197.81
2023-02-05T04:28:11.478Z,102179.84
2023-02-05T04:30:40.826Z,102186.75
2023-02-05T04:33:09.297Z,102212.75
2023-02-05T04:35:39.144Z,102219.72
2023-02-05T04:38:08.035Z,102214.59
2023-02-05T04:40:36.622Z,102223.34
2023-02-05T04:43:05.014Z,102224.25
2023-02-05T04:45:34.026Z,102212.19
2023-02-05T04:48:02.861Z,102216.59
2023-02-05T04:50:31.387Z,102214.88
2023-02-05T04:53:02.436Z,102207.16
2023-02-05T04:55:31.741Z,102221.84
2023-02-05T04:58:00.909Z,102234.88
2023-02-05T05:00:29.493Z,102215.19
2023-02-05T05:02:59.027Z,102230.69
2023-02-05T05:05:27.467Z,102241.03
2023-02-05T05:07:56.032Z,102244.50
2023-02-05T05:10:26.078Z,102222.97
2023-02-05T05:12:54.520Z,102249.75
2023-02-05T05:15:23.078Z,102251.56
2023-02-05T05:17:51.503Z,102256.75
2023-02-05T05:20:20.475Z,102261.06
2023-02-05T05:22:48.931Z,102268.06
2023-02-05T05:25:17.892Z,102267.28
2023-02-05T05:27:47.959Z,102251.78
2023-02-05T05:30:16.799Z,102261.28
2023-02-05T05:32:45.323Z,102279.34
2023-02-05T05:35:13.763Z,102267.22
2023-02-05T05:37:42.195Z,102263.84
2023-02-05T05:40:39.202Z,102281.09
2023-02-05T05:43:29.078Z,102290.56
2023-02-05T05:45:57.825Z,102294.09
2023-02-05T05:48:26.744Z,102288.94
2023-02-05T05:50:55.152Z,102291.47
2023-02-05T05:53:23.792Z,102295.88
2023-02-05T05:55:52.203Z,102298.44
2023-02-05T05:58:22.086Z,102293.31
2023-02-05T06:00:50.537Z,102289.94
2023-02-05T06:03:19.944Z,102284.00
2023-02-05T06:05:48.476Z,102299.50
2023-02-05T06:08:17.011Z,102288.25
2023-02-05T06:10:45.948Z,102294.28
2023-02-05T06:13:14.409Z,102295.19
2023-02-05T06:15:44.837Z,102298.66
2023-02-05T06:18:13.302Z,102303.00
2023-02-05T06:20:41.854Z,102304.75
2023-02-05T06:23:10.272Z,102307.41
2023-02-05T06:25:39.182Z,102309.13
2023-02-05T06:28:07.983Z,102315.22
2023-02-05T06:30:36.449Z,102319.59
2023-02-05T06:33:06.749Z,102318.75
2023-02-05T06:35:35.735Z,102311.78
2023-02-05T06:38:04.680Z,102320.47
2023-02-05T06:40:33.570Z,102320.53
2023-02-05T06:43:02.009Z,102332.59
2023-02-05T06:45:30.553Z,102320.56
2023-02-05T06:47:59.493Z,102328.28
2023-02-05T06:50:29.350Z,102331.75
2023-02-05T06:52:58.380Z,102328.31
2023-02-05T06:55:26.936Z,102333.47
2023-02-05T06:57:55.541Z,102341.31
2023-02-05T07:00:24.199Z,102346.50
2023-02-05T07:02:53.954Z,102345.69
2023-02-05T07:05:23.220Z,102345.72
2023-02-05T07:07:53.849Z,102350.13
2023-02-05T07:10:23.120Z,102337.22
2023-02-05T07:12:52.939Z,102376.84
2023-02-05T07:15:21.331Z,102359.66
2023-02-05T07:17:49.766Z,102371.66
2023-02-05T07:20:19.132Z,102375.09
2023-02-05T07:22:48.503Z,102383.69
2023-02-05T07:25:18.516Z,102388.00
2023-02-05T07:27:46.934Z,102406.09
2023-02-05T07:30:16.709Z,102385.38
2023-02-05T07:32:45.256Z,102393.06
2023-02-05T07:35:13.808Z,102385.28
2023-02-05T07:37:42.558Z,102387.81
2023-02-05T07:40:14.763Z,102386.91
2023-02-05T07:42:44.733Z,102383.38
2023-02-05T07:45:13.447Z,102379.00
2023-02-05T07:47:41.892Z,102391.03
2023-02-05T07:50:10.962Z,102397.81
2023-02-05T07:52:39.589Z,102395.09
2023-02-05T07:55:08.946Z,102397.59
2023-02-05T07:57:37.783Z,102393.22
2023-02-05T08:00:10.023Z,102399.25
2023-02-05T08:02:38.574Z,102403.50
2023-02-05T08:05:07.947Z,102405.97
2023-02-05T08:07:37.655Z,102398.13
2023-02-05T08:10:07.180Z,102380.81
2023-02-05T08:12:35.851Z,102402.31
2023-02-05T08:15:04.254Z,102395.25
2023-02-05T08:17:34.340Z,102406.47
2023-02-05T08:20:07.471Z,102402.81
2023-02-05T08:22:37.359Z,102409.78
2023-02-05T08:25:07.555Z,102392.44
2023-02-05T08:27:37.118Z,102402.03
2023-02-05T08:30:06.518Z,102402.81
2023-02-05T08:32:36.332Z,102393.56
2023-02-05T08:35:05.252Z,102405.63
2023-02-05T08:37:33.716Z,102403.66
2023-02-05T08:40:02.265Z,102408.59
2023-02-05T08:42:31.014Z,102412.78
2023-02-05T08:45:00.261Z,102407.78
2023-02-05T08:47:28.909Z,102407.72
2023-02-05T08:49:58.783Z,102409.56
2023-02-05T08:52:27.226Z,102411.38
2023-02-05T08:54:55.675Z,102410.28
2023-02-05T08:57:24.094Z,102413.41
2023-02-05T08:59:52.757Z,102405.38
2023-02-05T09:02:21.262Z,102413.13
2023-02-05T09:04:51.450Z,102407.03
2023-02-05T09:07:26.305Z,102403.78
2023-02-05T09:09:54.991Z,102400.00
2023-02-05T09:12:23.532Z,102399.69
2023-02-05T09:14:52.067Z,102390.13
2023-02-05T09:17:20.601Z,102393.38
2023-02-05T09:19:49.156Z,102378.75
2023-02-05T09:22:18.886Z,102387.38
2023-02-05T09:24:48.712Z,102388.03
2023-02-05T09:27:17.160Z,102374.31
2023-02-05T09:29:45.601Z,102377.69
2023-02-05T09:32:14.850Z,102369.78
2023-02-05T09:34:43.338Z,102360.66
2023-02-05T09:37:12.099Z,102382.34
2023-02-05T09:42:40.925Z,102376.81
2023-02-05T09:45:25.696Z,102372.28
2023-02-05T09:48:03.967Z,102372.03
2023-02-05T09:50:33.776Z,102370.88
2023-02-05T09:53:06.038Z,102375.13
2023-02-05T09:55:40.455Z,102368.06
2023-02-05T09:58:18.005Z,102376.28
2023-02-05T10:00:48.587Z,102378.78
2023-02-05T10:03:27.236Z,102382.06
2023-02-05T10:06:11.752Z,102379.31
2023-02-05T10:08:46.792Z,102367.03
2023-02-05T10:11:20.674Z,102375.34
2023-02-05T10:14:04.131Z,102366.47
2023-02-05T10:16:50.162Z,102363.13
2023-02-05T10:19:57.079Z,102362.13
2023-02-05T10:22:28.865Z,102355.16
2023-02-05T10:25:34.399Z,102353.56
2023-02-05T10:28:14.039Z,102352.91
2023-02-05T10:30:53.200Z,102345.84
2023-02-05T10:33:42.111Z,102350.16
2023-02-05T10:36:15.317Z,102347.53
2023-02-05T10:38:46.011Z,102351.13
2023-02-05T10:41:19.034Z,102350.34
2023-02-05T10:43:51.503Z,102344.34
2023-02-05T10:46:21.866Z,102347.75
2023-02-05T10:48:56.976Z,102342.34
2023-02-05T10:51:33.726Z,102343.22
2023-02-05T10:54:02.357Z,102350.28
2023-02-05T10:56:30.888Z,102350.28
2023-02-05T10:59:02.092Z,102351.91
2023-02-05T11:01:36.364Z,102351.88
2023-02-05T11:04:09.369Z,102340.75
2023-02-05T11:06:41.825Z,102339.66
2023-02-05T11:09:31.897Z,102345.63
2023-02-05T11:12:02.796Z,102311.84
2023-02-05T11:14:35.116Z,102322.00
2023-02-05T11:17:11.745Z,102326.97
2023-02-05T11:19:40.300Z,102340.03
2023-02-05T11:22:08.665Z,102319.25
2023-02-05T11:24:41.379Z,102341.53
2023-02-05T11:27:32.285Z,102320.81
2023-02-05T11:30:37.693Z,102341.59
2023-02-05T11:33:26.012Z,102345.19
2023-02-05T11:35:57.490Z,102348.59
2023-02-05T11:38:31.768Z,102346.75
2023-02-05T11:41:02.657Z,102351.81
2023-02-05T11:43:33.976Z,102324.94
2023-02-05T11:46:05.570Z,102339.44
2023-02-05T11:48:41.217Z,102332.56
2023-02-05T11:51:14.256Z,102333.28
2023-02-05T11:53:52.182Z,102334.94
2023-02-05T11:56:25.250Z,102319.56
2023-02-05T11:59:01.857Z,102331.56
2023-02-05T12:01:34.331Z,102334.78
2023-02-05T12:04:16.189Z,102344.34
2023-02-05T12:06:51.329Z,102341.00
2023-02-05T12:09:23.815Z,102336.72
2023-02-05T12:12:04.343Z,102341.03
2023-02-05T12:14:41.368Z,102331.66
2023-02-05T12:17:26.122Z,102334.06
2023-02-05T12:20:03.010Z,102328.72
2023-02-05T12:22:46.001Z,102327.75
2023-02-05T12:25:21.755Z,102335.50
2023-02-05T12:28:04.582Z,102323.25
2023-02-05T12:30:45.263Z,102308.03
2023-02-05T12:33:34.541Z,102314.53
2023-02-05T12:36:18.900Z,102307.41
2023-02-05T12:38:58.886Z,102310.78
2023-02-05T12:41:35.498Z,102310.75
2023-02-05T12:44:23.549Z,102299.50
2023-02-05T12:47:05.497Z,102307.16
2023-02-05T12:49:58.125Z,102305.28
2023-02-05T12:52:51.592Z,102308.63
2023-02-05T12:55:32.913Z,102300.97
2023-02-05T12:58:05.463Z,102313.78
2023-02-05T13:00:39.517Z,102318.13
2023-02-05T13:03:17.295Z,102315.50
2023-02-05T13:05:50.374Z,102313.13
2023-02-05T13:08:26.397Z,102304.59
2023-02-05T13:11:01.590Z,102314.94
2023-02-05T13:13:35.081Z,102314.94
2023-02-05T13:16:08.441Z,102310.59
2023-02-05T13:18:41.424Z,102320.97
2023-02-05T13:21:32.872Z,102307.16
2023-02-05T13:24:31.176Z,102317.63
2023-02-05T13:27:16.874Z,102321.03
2023-02-05T13:29:51.669Z,102315.84
2023-02-05T13:32:23.694Z,102307.25
2023-02-05T13:34:55.698Z,102313.47
2023-02-05T13:37:46.434Z,102297.06
2023-02-05T13:40:52.602Z,102311.03
2023-02-05T13:43:56.480Z,102301.50
2023-02-05T13:46:50.356Z,102294.53
2023-02-05T13:50:00.902Z,102301.25
2023-02-05T13:52:59.295Z,102306.53
2023-02-05T13:55:57.545Z,102299.53
2023-02-05T13:58:30.425Z,102294.31
2023-02-05T14:01:03.245Z,102296.91
2023-02-05T14:03:36.671Z,102291.69
2023-02-05T14:06:23.611Z,102297.72
2023-02-05T14:09:00.183Z,102298.63
2023-02-05T14:11:28.960Z,102284.03
2023-02-05T14:14:33.264Z,102302.13
2023-02-05T14:17:02.996Z,102303.00
2023-02-05T14:19:58.958Z,102296.97
2023-02-05T14:22:42.928Z,102292.69
2023-02-05T14:25:48.151Z,102297.06
2023-02-05T14:28:44.835Z,102291.91
2023-02-05T14:31:57.908Z,102284.13
2023-02-05T14:35:04.698Z,102289.34
2023-02-05T14:37:41.162Z,102293.84
2023-02-05T14:40:32.656Z,102301.72
2023-02-05T14:43:13.722Z,102299.97
2023-02-05T14:45:47.709Z,102295.72
2023-02-05T14:48:26.348Z,102297.50
2023-02-05T14:51:08.037Z,102300.09
2023-02-05T14:53:38.754Z,102289.81
2023-02-05T14:56:07.923Z,102293.16
2023-02-05T14:58:41.072Z,102292.38
2023-02-05T15:01:43.578Z,102301.75
2023-02-05T15:04:44.853Z,102301.84
2023-02-05T15:07:18.645Z,102300.94
2023-02-05T15:09:54.036Z,102301.97
2023-02-05T15:12:37.215Z,102302.13
2023-02-05T15:15:28.319Z,102312.34
2023-02-05T15:17:59.990Z,102328.00
2023-02-05T15:20:34.160Z,102331.41
2023-02-05T15:23:08.131Z,102308.03
2023-02-05T15:25:43.377Z,102314.03
2023-02-05T15:28:24.854Z,102318.44
2023-02-05T15:31:04.031Z,102316.69
2023-02-05T15:33:41.461Z,102321.06
2023-02-05T15:36:20.087Z,102306.47
2023-02-05T15:38:53.718Z,102322.84
2023-02-05T15:41:25.456Z,102328.09
2023-02-05T15:44:02.519Z,102331.72
2023-02-05T15:46:34.229Z,102325.72
2023-02-05T15:49:03.200Z,102313.72
2023-02-05T15:51:34.802Z,102322.38
2023-02-05T15:54:07.314Z,102317.22
2023-02-05T15:56:38.471Z,102321.63
2023-02-05T15:59:16.263Z,102331.25
2023-02-05T16:01:49.179Z,102337.41
2023-02-05T16:04:27.822Z,102339.19
2023-02-05T16:06:56.350Z,102329.66
2023-02-05T16:09:28.727Z,102337.47
2023-02-05T16:11:57.300Z,102334.06
2023-02-05T16:14:33.486Z,102328.19
2023-02-05T16:17:09.287Z,102330.13
2023-02-05T16:19:43.965Z,102320.78
2023-02-05T16:22:24.226Z,102312.16
2023-02-05T16:24:59.344Z,102332.78
2023-02-05T16:27:35.698Z,102320.78
2023-02-05T16:30:08.948Z,102333.75
2023-02-05T16:32:42.531Z,102339.84
2023-02-05T16:35:22.236Z,102334.69
2023-02-05T16:37:51.048Z,102337.41
2023-02-05T16:40:35.554Z,102342.63
2023-02-05T16:43:22.351Z,102345.28
2023-02-05T16:46:26.016Z,102347.16
2023-02-05T16:48:57.273Z,102358.47
2023-02-05T16:51:53.798Z,102333.56
2023-02-05T16:54:34.499Z,102349.94
2023-02-05T16:57:08.344Z,102349.06
2023-02-05T16:59:49.211Z,102358.69
2023-02-05T17:02:29.393Z,102352.00
2023-02-05T17:04:59.745Z,102360.59
2023-02-05T17:07:28.711Z,102360.66
2023-02-05T17:10:14.387Z,102348.56
2023-02-05T17:12:51.971Z,102355.56
2023-02-05T17:15:33.368Z,102346.13
2023-02-05T17:18:06.625Z,102360.03
2023-02-05T17:20:35.796Z,102360.09
2023-02-05T17:23:12.450Z,102354.94
2023-02-05T17:25:43.469Z,102337.03
2023-02-05T17:28:19.581Z,102360.34
2023-02-05T17:30:50.601Z,102355.19
2023-02-05T17:33:21.558Z,102350.94
2023-02-05T17:35:50.534Z,102339.81
2023-02-05T17:38:20.721Z,102357.16
2023-02-05T17:40:49.204Z,102345.97
2023-02-05T17:43:19.062Z,102352.94
2023-02-05T17:45:47.578Z,102354.72
2023-02-05T17:48:20.647Z,102354.78
2023-02-05T17:50:51.635Z,102348.88
2023-02-05T17:53:20.052Z,102353.19
2023-02-05T17:55:49.061Z,102359.34
2023-02-05T17:58:18.940Z,102355.94
2023-02-05T18:00:47.381Z,102355.09
2023-02-05T18:03:15.848Z,102360.41
2023-02-05T18:05:44.236Z,102362.19
2023-02-05T18:08:13.182Z,102352.88
2023-02-05T18:10:41.624Z,102346.91
2023-02-05T18:13:10.725Z,102352.09
2023-02-05T18:15:41.147Z,102345.25
2023-02-05T18:18:09.497Z,102364.28
2023-02-05T18:20:39.442Z,102358.31
2023-02-05T18:23:07.831Z,102357.47
2023-02-05T18:25:36.996Z,102359.91
2023-02-05T18:28:05.582Z,102348.69
2023-02-05T18:30:34.526Z,102345.28
2023-02-05T18:33:04.528Z,102329.91
2023-02-05T18:35:33.068Z,102341.97
2023-02-05T18:38:01.558Z,102331.66
2023-02-05T18:40:29.897Z,102341.25
2023-02-05T18:42:58.413Z,102339.56
2023-02-05T18:45:26.916Z,102347.41
2023-02-05T18:47:55.392Z,102339.81
2023-02-05T18:50:29.341Z,102350.13
2023-02-05T18:52:57.920Z,102334.72
2023-02-05T18:55:27.679Z,102359.78
2023-02-05T18:57:56.612Z,102344.34
2023-02-05T19:00:25.128Z,102363.28
2023-02-05T19:02:53.608Z,102366.81
2023-02-05T19:05:22.627Z,102361.13
2023-02-05T19:07:52.779Z,102358.50
2023-02-05T19:10:21.820Z,102366.41
2023-02-05T19:12:51.102Z,102345.09
2023-02-05T19:15:19.581Z,102352.88
2023-02-05T19:17:48.256Z,102346.16
2023-02-05T19:20:16.797Z,102365.22
2023-02-05T19:22:45.161Z,102372.78
2023-02-05T19:25:15.743Z,102363.16
2023-02-05T19:27:44.246Z,102357.16
2023-02-05T19:30:14.266Z,102365.03
2023-02-05T19:32:42.652Z,102367.50
2023-02-05T19:35:11.327Z,102369.22
2023-02-05T19:37:39.673Z,102371.03
2023-02-05T19:40:09.531Z,102376.31
2023-02-05T19:42:41.695Z,102390.25
2023-02-05T19:45:10.900Z,102385.09
2023-02-05T19:47:39.601Z,102380.97
2023-02-05T19:50:08.725Z,102393.91
2023-02-05T19:52:37.132Z,102402.63
2023-02-05T19:55:06.442Z,102413.00
2023-02-05T19:57:35.902Z,102407.84
2023-02-05T20:00:06.584Z,102403.56
2023-02-05T20:02:35.974Z,102429.50
2023-02-05T20:05:04.515Z,102429.56
2023-02-05T20:07:34.078Z,102438.22
2023-02-05T20:10:04.684Z,102428.84
2023-02-05T20:12:33.412Z,102444.34
2023-02-05T20:15:01.867Z,102452.13
2023-02-05T20:17:31.719Z,102447.78
2023-02-05T20:20:12.401Z,102450.47
2023-02-05T20:22:44.283Z,102454.75
2023-02-05T20:25:13.410Z,102460.84
2023-02-05T20:27:41.907Z,102463.44
2023-02-05T20:30:31.686Z,102453.16
2023-02-05T20:33:01.871Z,102468.69
2023-02-05T20:35:30.297Z,102468.72
2023-02-05T20:37:59.399Z,102459.28
2023-02-05T20:40:27.795Z,102460.09
2023-02-05T20:42:57.347Z,102460.13
2023-02-05T20:45:29.058Z,102460.19
2023-02-05T20:48:00.298Z,102466.28
2023-02-05T20:50:30.995Z,102469.75
2023-02-05T20:52:59.542Z,102489.63
2023-02-05T20:55:28.189Z,102468.09
2023-02-05T20:57:58.342Z,102478.38
2023-02-05T21:00:27.744Z,102484.47
2023-02-05T21:02:56.689Z,102492.25
2023-02-05T21:05:25.204Z,102502.63
2023-02-05T21:07:55.112Z,102489.78
2023-02-05T21:10:23.783Z,102504.41
2023-02-05T21:12:52.268Z,102494.91
2023-02-05T21:15:20.708Z,102502.69
2023-02-05T21:17:49.122Z,102507.00
2023-02-05T21:20:18.210Z,102514.78
2023-02-05T21:22:46.733Z,102508.72
2023-02-05T21:25:16.801Z,102518.25
2023-02-05T21:27:45.331Z,102516.53
2023-02-05T21:30:15.175Z,102507.94
2023-02-05T21:32:43.912Z,102502.81
2023-02-05T21:35:12.352Z,102513.09
2023-02-05T21:37:40.923Z,102513.97
2023-02-05T21:40:10.120Z,102507.06
2023-02-05T21:42:40.010Z,102500.19
2023-02-05T21:45:09.390Z,102507.16
2023-02-05T21:47:37.927Z,102502.91
2023-02-05T21:50:07.606Z,102507.22
2023-02-05T21:52:36.058Z,102512.41
2023-02-05T21:55:04.703Z,102515.81
2023-02-05T21:57:33.157Z,102522.75
2023-02-05T22:00:04.486Z,102532.25
2023-02-05T22:02:32.957Z,102526.22
2023-02-05T22:05:01.520Z,102538.31
2023-02-05T22:07:30.180Z,102546.16
2023-02-05T22:09:58.696Z,102555.66
2023-02-05T22:12:27.458Z,102540.97
2023-02-05T22:14:55.844Z,102541.84
2023-02-05T22:17:26.202Z,102534.94
2023-02-05T22:19:54.656Z,102540.13
2023-02-05T22:22:23.289Z,102522.88
2023-02-05T22:24:51.909Z,102544.44
2023-02-05T22:27:20.567Z,102547.09
2023-02-05T22:29:50.708Z,102553.16
2023-02-05T22:32:19.140Z,102541.09
2023-02-05T22:34:48.952Z,102554.88
2023-02-05T22:37:17.582Z,102559.25
2023-02-05T22:39:45.966Z,102556.69
2023-02-05T22:42:14.600Z,102557.56
2023-02-05T22:44:42.997Z,102558.41
2023-02-05T22:47:11.393Z,102567.91
2023-02-05T22:49:39.976Z,102573.97
2023-02-05T22:52:10.715Z,102563.63
2023-02-05T22:54:40.646Z,102574.03
2023-02-05T22:57:09.253Z,102583.56
2023-02-05T22:59:37.698Z,102573.19
2023-02-05T23:02:06.351Z,102568.84
2023-02-05T23:04:35.138Z,102564.56
2023-02-05T23:07:03.568Z,102575.81
2023-02-05T23:09:34.491Z,102580.16
2023-02-05T23:12:03.484Z,102579.31
2023-02-05T23:14:31.988Z,102576.75
2023-02-05T23:17:00.645Z,102572.44
2023-02-05T23:19:29.396Z,102570.72
2023-02-05T23:21:57.911Z,102550.88
2023-02-05T23:24:26.453Z,102539.78
2023-02-05T23:26:56.456Z,102560.53
2023-02-05T23:29:25.017Z,102561.41
2023-02-05T23:31:53.419Z,102535.47
2023-02-05T23:34:21.924Z,102535.44
2023-02-05T23:36:50.426Z,102545.81
2023-02-05T23:39:18.863Z,102536.28
2023-02-05T23:41:47.501Z,102544.09
2023-02-05T23:44:19.597Z,102543.19
2023-02-05T23:46:49.598Z,102544.91
2023-02-05T23:49:21.237Z,102537.97
2023-02-05T23:51:50.039Z,102540.56
2023-02-05T23:54:18.741Z,102532.78
2023-02-05T23:56:47.622Z,102529.31
2023-02-05T23:59:18.399Z,102525.84
